Primda, Czech Republic
Current Conditions -  °F | °C
As of 3:47 PM on Saturday 25 Oct 2014 (Local Time) from LKLN Reporting Station
NA  
Wind Chill: 46°   Ceiling: NA
Heat Index: 46°   Visibility: NA
Dew Point: 41°   Wind: 3mph
Humidity: 81%   Direction: NA
Pressure: 30.18"   Gusts: NA
Location:  49.67°N, 12.68°E
Report Text: LKLN 251347Z AUTO VRB03KT //// ////// 08/05 Q1022
Loading
Personal Weather Stations






























Interactive Weather Map
Tropical Storm Tracking
New forecast layout! Learn more

10-Day Weather Forecast

Advertisements
Track Severe Weather on mobile